Time;durP1;ratioP1;P1;durP2;ratioP2;P2;SDS_P1;SDS_P2;PMS_P1;PMS_P2;Temp;Humidity;BMP_temperature;BMP_pressure;BME280_temperature;BME280_humidity;BME280_pressure;Samples;Min_cycle;Max_cycle;Signal;HPM_P1;HPM_P2
2022/06/16 00:02:05;;;;;;;3.90;2.70;;;;;;;;;;5070494;28;20241;-52
2022/06/16 00:04:31;;;;;;;3.63;3.05;;;;;;;;;;5063343;28;20263;-52
2022/06/16 00:06:59;;;;;;;2.97;2.78;;;;;;;;;;5059797;28;20314;-52
2022/06/16 00:09:27;;;;;;;4.22;3.35;;;;;;;;;;5068235;28;20709;-52
2022/06/16 00:11:54;;;;;;;6.53;3.30;;;;;;;;;;5056683;28;20250;-51
2022/06/16 00:14:22;;;;;;;3.60;2.65;;;;;;;;;;5066217;28;20235;-51
2022/06/16 00:16:48;;;;;;;3.33;2.75;;;;;;;;;;5053345;28;20309;-52
2022/06/16 00:19:15;;;;;;;2.70;2.50;;;;;;;;;;5064077;28;20245;-52
2022/06/16 00:21:42;;;;;;;2.70;2.50;;;;;;;;;;5062266;28;20623;-51
2022/06/16 00:24:08;;;;;;;4.18;2.85;;;;;;;;;;5064354;28;20316;-52
2022/06/16 00:26:37;;;;;;;2.67;2.08;;;;;;;;;;5058193;28;20662;-53
2022/06/16 00:29:04;;;;;;;2.92;2.63;;;;;;;;;;5061980;28;20242;-52
2022/06/16 00:31:30;;;;;;;9.63;3.17;;;;;;;;;;5065552;28;20322;-52
2022/06/16 00:33:57;;;;;;;2.53;2.33;;;;;;;;;;5045060;28;20236;-53
2022/06/16 00:36:24;;;;;;;3.70;3.38;;;;;;;;;;5078151;28;20238;-54
2022/06/16 00:38:50;;;;;;;2.80;2.47;;;;;;;;;;5065034;28;20227;-54
2022/06/16 00:41:17;;;;;;;3.13;2.60;;;;;;;;;;5064025;28;20318;-53
2022/06/16 00:43:45;;;;;;;3.58;2.90;;;;;;;;;;5050591;28;20276;-53
2022/06/16 00:46:13;;;;;;;4.35;3.20;;;;;;;;;;5062982;28;20324;-51
2022/06/16 00:48:42;;;;;;;2.75;2.50;;;;;;;;;;5057148;28;20259;-52
2022/06/16 00:51:10;;;;;;;2.30;2.10;;;;;;;;;;5061824;28;20664;-53
2022/06/16 00:53:37;;;;;;;2.63;2.42;;;;;;;;;;5058301;28;20318;-53
2022/06/16 00:56:04;;;;;;;3.35;2.50;;;;;;;;;;5058416;28;20758;-52
2022/06/16 00:58:32;;;;;;;3.53;2.55;;;;;;;;;;5063974;28;20246;-53
2022/06/16 01:01:00;;;;;;;3.45;3.03;;;;;;;;;;5059328;28;20273;-52
2022/06/16 01:06:28;;;;;;;3.53;2.72;;;;;;;;;;5048966;28;20306;-52
2022/06/16 01:08:56;;;;;;;2.78;2.42;;;;;;;;;;5064323;28;20341;-53
2022/06/16 01:14:15;;;;;;;4.57;3.00;;;;;;;;;;5052812;28;20246;-52
2022/06/16 01:16:45;;;;;;;3.33;3.00;;;;;;;;;;5053940;28;20233;-52
2022/06/16 01:19:17;;;;;;;3.60;3.30;;;;;;;;;;5063521;28;20529;-52
2022/06/16 01:21:50;;;;;;;4.38;3.00;;;;;;;;;;5056166;28;20277;-52
2022/06/16 01:24:45;;;;;;;3.85;2.90;;;;;;;;;;5068801;28;20231;-52
2022/06/16 01:27:25;;;;;;;3.17;2.85;;;;;;;;;;5060181;28;20225;-52
2022/06/16 01:29:57;;;;;;;3.70;3.22;;;;;;;;;;5055301;28;20677;-52
2022/06/16 01:32:29;;;;;;;4.97;3.15;;;;;;;;;;5057545;28;20282;-55
2022/06/16 01:34:58;;;;;;;3.70;2.78;;;;;;;;;;5051859;28;20922;-53
2022/06/16 01:37:28;;;;;;;3.20;2.70;;;;;;;;;;5066967;28;20713;-51
2022/06/16 01:39:58;;;;;;;3.72;2.90;;;;;;;;;;5065541;28;20318;-60
2022/06/16 01:42:26;;;;;;;3.72;2.90;;;;;;;;;;5085315;28;20261;-53
2022/06/16 01:45:00;;;;;;;2.97;2.75;;;;;;;;;;5064518;28;20227;-52
2022/06/16 01:47:27;;;;;;;4.93;4.03;;;;;;;;;;5057578;28;20323;-52
2022/06/16 01:49:56;;;;;;;6.45;3.45;;;;;;;;;;5057136;28;20712;-52
2022/06/16 01:52:24;;;;;;;8.50;3.75;;;;;;;;;;5051849;28;20397;-53
2022/06/16 01:54:52;;;;;;;6.22;3.35;;;;;;;;;;5059709;28;20281;-52
2022/06/16 01:57:22;;;;;;;5.28;3.50;;;;;;;;;;5055934;28;20526;-52
2022/06/16 01:59:51;;;;;;;6.13;3.38;;;;;;;;;;5066186;28;20319;-52
2022/06/16 02:02:20;;;;;;;3.25;2.90;;;;;;;;;;5057594;28;20240;-52
2022/06/16 02:04:49;;;;;;;3.17;2.88;;;;;;;;;;5082252;28;20314;-54
2022/06/16 02:07:17;;;;;;;5.70;3.50;;;;;;;;;;5055488;28;20246;-53
2022/06/16 02:09:46;;;;;;;3.85;3.47;;;;;;;;;;5056418;28;20231;-53
2022/06/16 02:12:55;;;;;;;3.95;3.33;;;;;;;;;;5053302;28;20231;-53
2022/06/16 02:15:07;;;;;;;4.25;3.53;;;;;;;;;;5060032;28;20232;-53
2022/06/16 02:17:34;;;;;;;4.60;4.18;;;;;;;;;;5056428;28;20230;-53
2022/06/16 02:20:01;;;;;;;4.30;3.05;;;;;;;;;;5051341;28;20700;-52
2022/06/16 02:22:27;;;;;;;4.45;4.00;;;;;;;;;;5061901;28;20250;-52
2022/06/16 02:24:53;;;;;;;5.35;3.63;;;;;;;;;;5057009;28;20238;-52
2022/06/16 02:27:20;;;;;;;5.38;3.38;;;;;;;;;;5059002;28;20773;-52
2022/06/16 02:29:47;;;;;;;5.97;3.25;;;;;;;;;;5062146;28;20231;-52
2022/06/16 02:32:26;;;;;;;3.85;3.55;;;;;;;;;;5060967;28;20227;-53
2022/06/16 02:34:59;;;;;;;4.88;3.70;;;;;;;;;;5056545;28;20236;-57
2022/06/16 02:37:31;;;;;;;3.80;3.50;;;;;;;;;;5057127;28;20242;-53
2022/06/16 02:40:04;;;;;;;4.05;3.65;;;;;;;;;;5060085;28;20227;-51
2022/06/16 02:42:35;;;;;;;7.35;4.03;;;;;;;;;;5054177;28;20318;-53
2022/06/16 02:45:07;;;;;;;5.00;3.85;;;;;;;;;;5059137;28;20223;-54
2022/06/16 02:47:46;;;;;;;4.10;3.78;;;;;;;;;;5059103;28;20231;-52
2022/06/16 02:50:21;;;;;;;5.47;3.63;;;;;;;;;;5058159;28;20237;-54
2022/06/16 02:52:50;;;;;;;7.03;4.05;;;;;;;;;;5051689;28;20712;-53
2022/06/16 02:55:20;;;;;;;4.22;3.83;;;;;;;;;;5055579;28;20240;-53
2022/06/16 02:57:48;;;;;;;4.32;3.58;;;;;;;;;;5052925;28;20242;-53
2022/06/16 03:00:15;;;;;;;4.32;3.30;;;;;;;;;;5056554;28;20228;-53
2022/06/16 03:02:42;;;;;;;4.22;3.83;;;;;;;;;;5058718;28;20243;-53
2022/06/16 03:05:09;;;;;;;3.58;3.28;;;;;;;;;;5057458;28;20228;-52
2022/06/16 03:07:37;;;;;;;3.88;3.42;;;;;;;;;;5056305;28;20227;-52
2022/06/16 03:10:05;;;;;;;3.83;3.53;;;;;;;;;;5054861;28;20220;-54
2022/06/16 03:12:31;;;;;;;4.85;4.03;;;;;;;;;;5046920;28;20236;-53
2022/06/16 03:14:57;;;;;;;5.97;3.95;;;;;;;;;;5052445;28;20227;-53
2022/06/16 03:17:24;;;;;;;3.70;3.40;;;;;;;;;;5062817;28;20233;-52
2022/06/16 03:19:50;;;;;;;4.13;3.72;;;;;;;;;;5065480;28;20285;-53
2022/06/16 03:22:18;;;;;;;3.78;3.42;;;;;;;;;;5075146;28;20230;-52
2022/06/16 03:24:46;;;;;;;3.50;2.97;;;;;;;;;;5062868;28;20235;-51
2022/06/16 03:27:12;;;;;;;4.40;4.03;;;;;;;;;;5050893;28;20231;-52
2022/06/16 03:29:39;;;;;;;5.55;3.95;;;;;;;;;;5057863;28;20235;-52
2022/06/16 03:32:05;;;;;;;3.63;3.30;;;;;;;;;;5044044;28;20238;-52
2022/06/16 03:34:32;;;;;;;4.63;3.97;;;;;;;;;;5055938;28;20223;-51
2022/06/16 03:36:58;;;;;;;4.57;4.15;;;;;;;;;;5060972;28;20229;-52
2022/06/16 03:39:24;;;;;;;5.07;3.67;;;;;;;;;;5066863;28;20234;-50
2022/06/16 03:41:52;;;;;;;3.90;3.50;;;;;;;;;;5061919;28;20239;-54
2022/06/16 03:44:19;;;;;;;5.93;4.03;;;;;;;;;;5050582;28;20231;-52
2022/06/16 03:46:45;;;;;;;5.90;4.18;;;;;;;;;;5045379;28;20239;-52
2022/06/16 03:49:12;;;;;;;4.57;3.97;;;;;;;;;;5048807;28;20235;-52
2022/06/16 03:51:38;;;;;;;7.38;3.97;;;;;;;;;;5052511;28;20219;-52
2022/06/16 03:54:04;;;;;;;4.65;3.35;;;;;;;;;;5051385;28;20621;-53
2022/06/16 03:56:31;;;;;;;4.55;3.85;;;;;;;;;;5049292;28;20232;-53
2022/06/16 03:58:58;;;;;;;6.82;3.92;;;;;;;;;;5048465;28;20270;-52
2022/06/16 04:01:25;;;;;;;4.38;3.63;;;;;;;;;;5051729;28;20235;-56
2022/06/16 04:04:00;;;;;;;3.45;3.15;;;;;;;;;;5048641;28;20231;-52
2022/06/16 04:06:26;;;;;;;4.15;3.75;;;;;;;;;;5053284;28;20759;-52
2022/06/16 04:08:52;;;;;;;5.47;4.22;;;;;;;;;;5060693;28;20248;-52
2022/06/16 04:11:27;;;;;;;5.03;3.88;;;;;;;;;;5077665;28;20305;-53
2022/06/16 04:13:55;;;;;;;4.97;4.05;;;;;;;;;;5065878;28;20241;-52
2022/06/16 04:16:22;;;;;;;5.68;3.50;;;;;;;;;;5064889;28;20230;-51
2022/06/16 04:18:49;;;;;;;8.10;3.65;;;;;;;;;;5058637;28;20258;-52
2022/06/16 04:21:15;;;;;;;4.90;4.38;;;;;;;;;;5056455;28;20231;-52
2022/06/16 04:23:42;;;;;;;7.40;3.92;;;;;;;;;;5061220;28;20235;-52
2022/06/16 04:26:08;;;;;;;4.22;3.47;;;;;;;;;;5053419;28;20736;-52
2022/06/16 04:28:34;;;;;;;4.60;3.88;;;;;;;;;;5066184;28;20364;-52
2022/06/16 04:31:01;;;;;;;5.03;3.33;;;;;;;;;;5057519;28;20230;-52
2022/06/16 04:33:29;;;;;;;6.13;4.07;;;;;;;;;;5058414;28;20235;-52
2022/06/16 04:35:55;;;;;;;4.10;3.70;;;;;;;;;;5063411;28;20235;-53
2022/06/16 04:38:21;;;;;;;4.43;3.45;;;;;;;;;;5064272;28;20235;-52
2022/06/16 04:40:48;;;;;;;3.72;3.42;;;;;;;;;;5059694;28;20231;-52
2022/06/16 04:43:17;;;;;;;4.82;3.30;;;;;;;;;;5054085;28;20242;-56
2022/06/16 04:45:44;;;;;;;6.43;4.07;;;;;;;;;;5067699;28;20835;-52
2022/06/16 04:48:10;;;;;;;6.68;3.88;;;;;;;;;;5063429;28;20228;-52
2022/06/16 04:50:39;;;;;;;4.57;3.88;;;;;;;;;;5057772;28;20408;-54
2022/06/16 04:53:05;;;;;;;5.50;4.03;;;;;;;;;;5057847;28;20238;-53
2022/06/16 04:55:31;;;;;;;2.75;2.55;;;;;;;;;;5052657;28;20231;-55
2022/06/16 04:57:58;;;;;;;6.63;4.15;;;;;;;;;;5066126;28;20396;-53
2022/06/16 05:00:24;;;;;;;4.97;3.83;;;;;;;;;;5061479;28;20712;-53
2022/06/16 05:02:51;;;;;;;3.50;2.85;;;;;;;;;;5079661;28;20234;-52
2022/06/16 05:05:17;;;;;;;4.85;4.10;;;;;;;;;;5061166;28;20246;-53
2022/06/16 05:07:45;;;;;;;4.57;3.63;;;;;;;;;;5062350;28;20242;-52
2022/06/16 05:10:12;;;;;;;6.65;3.78;;;;;;;;;;5063089;28;20255;-52
2022/06/16 05:12:38;;;;;;;3.65;3.25;;;;;;;;;;5082122;28;20231;-53
2022/06/16 05:15:05;;;;;;;3.72;3.40;;;;;;;;;;5050346;28;20227;-53
2022/06/16 05:17:31;;;;;;;3.55;3.17;;;;;;;;;;5051633;28;20231;-53
2022/06/16 05:19:58;;;;;;;4.63;3.22;;;;;;;;;;5060203;28;20271;-55
2022/06/16 05:22:25;;;;;;;6.80;3.90;;;;;;;;;;5061733;28;20235;-53
2022/06/16 05:24:52;;;;;;;5.72;3.10;;;;;;;;;;5056488;28;20695;-52
2022/06/16 05:27:19;;;;;;;5.28;3.63;;;;;;;;;;5059363;28;20243;-53
2022/06/16 05:29:46;;;;;;;4.38;3.35;;;;;;;;;;5060750;28;20222;-51
2022/06/16 05:32:12;;;;;;;3.95;2.90;;;;;;;;;;5056812;28;20235;-52
2022/06/16 05:34:39;;;;;;;3.95;3.30;;;;;;;;;;5059331;28;20241;-52
2022/06/16 05:37:05;;;;;;;7.25;3.55;;;;;;;;;;5070525;28;20235;-52
2022/06/16 05:39:34;;;;;;;4.43;3.53;;;;;;;;;;5062935;28;20288;-52
2022/06/16 05:42:02;;;;;;;4.10;2.75;;;;;;;;;;5057387;28;20239;-52
2022/06/16 05:44:29;;;;;;;3.08;2.78;;;;;;;;;;5056362;28;20236;-52
2022/06/16 05:46:55;;;;;;;3.85;3.10;;;;;;;;;;5057382;28;20227;-54
2022/06/16 05:49:22;;;;;;;6.28;3.10;;;;;;;;;;5061120;28;20894;-52
2022/06/16 05:51:49;;;;;;;6.22;3.58;;;;;;;;;;5061505;28;20296;-52
2022/06/16 05:54:15;;;;;;;5.85;3.38;;;;;;;;;;5068879;28;20262;-52
2022/06/16 05:56:41;;;;;;;5.60;3.72;;;;;;;;;;5053697;28;20246;-52
2022/06/16 05:59:09;;;;;;;3.17;2.95;;;;;;;;;;5056484;28;20236;-51
2022/06/16 06:01:35;;;;;;;2.92;2.65;;;;;;;;;;5063272;28;20688;-52
2022/06/16 06:04:02;;;;;;;3.65;2.65;;;;;;;;;;5059599;28;20235;-52
2022/06/16 06:06:28;;;;;;;3.50;3.20;;;;;;;;;;5057435;28;20740;-52
2022/06/16 06:17:12;;;;;;;3.97;3.28;;;;;;;;;;5051886;28;20300;-52
2022/06/16 06:19:39;;;;;;;3.92;2.92;;;;;;;;;;5059887;28;20233;-52
2022/06/16 06:22:06;;;;;;;5.03;2.25;;;;;;;;;;5054552;28;20318;-52
2022/06/16 06:24:34;;;;;;;5.60;2.78;;;;;;;;;;5061025;28;20235;-52
2022/06/16 06:27:02;;;;;;;3.58;2.30;;;;;;;;;;5053836;28;20784;-53
2022/06/16 06:29:30;;;;;;;9.35;3.03;;;;;;;;;;5057020;28;20239;-52
2022/06/16 06:31:57;;;;;;;2.63;2.42;;;;;;;;;;5057382;28;20242;-53
2022/06/16 06:34:23;;;;;;;3.30;2.70;;;;;;;;;;5056330;28;20860;-52
2022/06/16 06:36:50;;;;;;;5.47;2.92;;;;;;;;;;5055408;28;20234;-54
2022/06/16 06:39:16;;;;;;;3.47;2.13;;;;;;;;;;5050622;28;20728;-53
2022/06/16 06:41:43;;;;;;;4.72;2.78;;;;;;;;;;5061541;28;20235;-53
2022/06/16 06:44:10;;;;;;;3.13;2.65;;;;;;;;;;5054665;28;20222;-52
2022/06/16 06:46:38;;;;;;;3.97;2.58;;;;;;;;;;5054180;28;20227;-52
2022/06/16 06:49:04;;;;;;;3.13;2.83;;;;;;;;;;5056089;28;20223;-52
2022/06/16 06:51:32;;;;;;;4.40;2.63;;;;;;;;;;5055528;28;20239;-54
2022/06/16 06:53:59;;;;;;;3.30;2.33;;;;;;;;;;5057416;28;20380;-52
2022/06/16 06:56:26;;;;;;;4.32;3.03;;;;;;;;;;5054159;28;20227;-52
2022/06/16 06:58:53;;;;;;;4.28;2.45;;;;;;;;;;5056343;28;20297;-52
2022/06/16 07:01:19;;;;;;;3.60;2.78;;;;;;;;;;5051176;28;20236;-52
2022/06/16 07:03:49;;;;;;;3.25;2.42;;;;;;;;;;5062600;28;20246;-54
2022/06/16 07:06:16;;;;;;;2.85;2.35;;;;;;;;;;5059481;28;20235;-53
2022/06/16 07:08:43;;;;;;;4.50;3.45;;;;;;;;;;5054911;28;20233;-53
2022/06/16 07:11:09;;;;;;;2.60;2.30;;;;;;;;;;5048700;28;20401;-51
2022/06/16 07:13:36;;;;;;;2.28;2.08;;;;;;;;;;5055701;28;20342;-52
2022/06/16 07:16:02;;;;;;;2.80;2.42;;;;;;;;;;5057347;28;20318;-53
2022/06/16 07:18:29;;;;;;;4.18;2.90;;;;;;;;;;5052993;28;20727;-52
2022/06/16 07:20:57;;;;;;;3.60;2.40;;;;;;;;;;5056960;28;20235;-52
2022/06/16 07:23:23;;;;;;;2.13;1.98;;;;;;;;;;5057557;28;20239;-52
2022/06/16 07:25:51;;;;;;;4.30;2.65;;;;;;;;;;5051295;28;20713;-53
2022/06/16 07:28:18;;;;;;;2.83;2.08;;;;;;;;;;5053858;28;20250;-53
2022/06/16 07:30:45;;;;;;;4.15;2.30;;;;;;;;;;5049146;28;20975;-52
2022/06/16 07:33:12;;;;;;;5.35;2.70;;;;;;;;;;5050319;28;20234;-53
2022/06/16 07:35:41;;;;;;;4.28;2.33;;;;;;;;;;5061121;28;20236;-52
2022/06/16 07:38:08;;;;;;;4.68;2.55;;;;;;;;;;5054911;28;20223;-52
2022/06/16 07:40:35;;;;;;;3.17;2.05;;;;;;;;;;5063641;28;20712;-52
2022/06/16 07:43:01;;;;;;;4.20;2.08;;;;;;;;;;5063687;28;20227;-53
2022/06/16 07:45:29;;;;;;;3.28;2.67;;;;;;;;;;5065256;28;20231;-52
2022/06/16 07:47:57;;;;;;;5.00;2.28;;;;;;;;;;5059196;28;20241;-53
2022/06/16 07:50:24;;;;;;;3.50;2.75;;;;;;;;;;5056154;28;20240;-51
2022/06/16 07:52:50;;;;;;;2.40;2.15;;;;;;;;;;5060850;28;20237;-52
2022/06/16 07:55:18;;;;;;;3.38;2.30;;;;;;;;;;5062880;28;20258;-53
2022/06/16 07:57:45;;;;;;;2.50;2.30;;;;;;;;;;5059227;28;20627;-52
2022/06/16 08:00:13;;;;;;;3.25;2.88;;;;;;;;;;5070817;28;20775;-54
2022/06/16 08:02:40;;;;;;;3.70;1.75;;;;;;;;;;5073199;28;20235;-53
2022/06/16 08:05:07;;;;;;;2.40;2.20;;;;;;;;;;5061044;28;20709;-54
2022/06/16 08:07:33;;;;;;;4.38;2.33;;;;;;;;;;5058507;28;20662;-54
2022/06/16 08:10:00;;;;;;;5.15;2.55;;;;;;;;;;5061782;28;20317;-52
2022/06/16 08:12:27;;;;;;;2.90;2.63;;;;;;;;;;5059905;28;20741;-53
2022/06/16 08:14:54;;;;;;;6.03;2.70;;;;;;;;;;5061303;28;20731;-54
2022/06/16 08:17:22;;;;;;;5.22;2.75;;;;;;;;;;5054351;28;20251;-52
2022/06/16 08:19:48;;;;;;;2.65;2.30;;;;;;;;;;5063418;28;20231;-52
2022/06/16 08:22:15;;;;;;;4.13;2.55;;;;;;;;;;5061469;28;20255;-53
2022/06/16 08:24:41;;;;;;;2.40;2.20;;;;;;;;;;5058212;28;20236;-52
2022/06/16 08:27:08;;;;;;;3.42;2.10;;;;;;;;;;5058343;28;20223;-53
2022/06/16 08:29:35;;;;;;;5.70;2.65;;;;;;;;;;5052396;28;20231;-53
2022/06/16 08:32:02;;;;;;;4.50;2.33;;;;;;;;;;5066796;28;20244;-53
2022/06/16 08:34:28;;;;;;;4.65;2.20;;;;;;;;;;5064182;28;20242;-53
2022/06/16 08:36:55;;;;;;;4.88;3.22;;;;;;;;;;5056656;28;20284;-53
2022/06/16 08:39:21;;;;;;;2.55;1.58;;;;;;;;;;5066018;28;20314;-53
2022/06/16 08:41:49;;;;;;;2.30;2.10;;;;;;;;;;5065703;28;20292;-52
2022/06/16 08:44:18;;;;;;;3.60;2.28;;;;;;;;;;5063056;28;20300;-52
2022/06/16 08:47:01;;;;;;;2.83;2.50;;;;;;;;;;5063253;28;20599;-52
2022/06/16 08:49:33;;;;;;;4.63;2.20;;;;;;;;;;5055713;28;20674;-53
2022/06/16 08:52:11;;;;;;;1.98;1.80;;;;;;;;;;5061098;28;20321;-53
2022/06/16 08:54:44;;;;;;;2.33;2.13;;;;;;;;;;5057116;28;20237;-54
2022/06/16 08:57:13;;;;;;;3.05;1.85;;;;;;;;;;5061653;28;20310;-55
2022/06/16 08:59:43;;;;;;;3.92;2.17;;;;;;;;;;5060312;28;20233;-59
2022/06/16 09:02:14;;;;;;;4.15;2.00;;;;;;;;;;5055672;28;20238;-53
2022/06/16 09:04:43;;;;;;;4.20;1.92;;;;;;;;;;5056535;28;20227;-53
2022/06/16 09:07:15;;;;;;;2.47;2.00;;;;;;;;;;5060171;28;20340;-53
2022/06/16 09:12:41;;;;;;;2.65;1.85;;;;;;;;;;5056568;28;20737;-52
2022/06/16 09:15:14;;;;;;;2.45;1.85;;;;;;;;;;5053554;28;20800;-53
2022/06/16 09:17:46;;;;;;;2.95;2.08;;;;;;;;;;5054368;28;20227;-53
2022/06/16 09:20:16;;;;;;;5.47;2.35;;;;;;;;;;5059929;28;20765;-53
2022/06/16 09:23:03;;;;;;;3.35;1.83;;;;;;;;;;5058786;28;20661;-53
2022/06/16 09:25:40;;;;;;;2.60;2.20;;;;;;;;;;5049647;28;20682;-52
2022/06/16 09:28:12;;;;;;;2.45;2.15;;;;;;;;;;5050912;28;20230;-52
2022/06/16 09:30:40;;;;;;;2.65;2.10;;;;;;;;;;5070693;28;20231;-53
2022/06/16 09:33:09;;;;;;;3.50;2.30;;;;;;;;;;5065003;28;20731;-53
2022/06/16 09:35:38;;;;;;;2.70;2.38;;;;;;;;;;5070957;28;20732;-53
2022/06/16 09:38:10;;;;;;;4.63;2.50;;;;;;;;;;5055464;28;20329;-52
2022/06/16 09:40:38;;;;;;;2.30;2.08;;;;;;;;;;5064322;28;20228;-52
2022/06/16 09:43:10;;;;;;;2.28;2.00;;;;;;;;;;5059139;28;20291;-53
2022/06/16 09:45:40;;;;;;;2.30;2.10;;;;;;;;;;5059890;28;20716;-53
2022/06/16 09:48:09;;;;;;;7.72;2.47;;;;;;;;;;5060106;28;20243;-52
2022/06/16 09:50:41;;;;;;;3.25;1.98;;;;;;;;;;5059915;28;20733;-52
2022/06/16 09:53:10;;;;;;;3.35;2.00;;;;;;;;;;5065077;28;20235;-53
2022/06/16 09:55:38;;;;;;;3.45;2.40;;;;;;;;;;5060572;28;20709;-53
2022/06/16 09:58:10;;;;;;;3.42;2.33;;;;;;;;;;5058094;28;20244;-53
2022/06/16 10:00:36;;;;;;;2.75;2.20;;;;;;;;;;5064863;28;20238;-53
2022/06/16 10:03:16;;;;;;;2.65;1.83;;;;;;;;;;5061323;28;20246;-53
2022/06/16 10:05:49;;;;;;;2.83;2.15;;;;;;;;;;5054912;28;20259;-54
2022/06/16 10:08:17;;;;;;;3.67;2.55;;;;;;;;;;5062595;28;20227;-54
2022/06/16 10:10:47;;;;;;;3.30;2.03;;;;;;;;;;5055623;28;20319;-52
2022/06/16 10:13:17;;;;;;;3.15;1.95;;;;;;;;;;5061481;28;20243;-53
2022/06/16 10:15:46;;;;;;;4.43;1.90;;;;;;;;;;5052714;28;20426;-52
2022/06/16 10:18:13;;;;;;;2.63;2.03;;;;;;;;;;5065430;28;20228;-53
2022/06/16 10:20:43;;;;;;;2.88;1.55;;;;;;;;;;5054584;28;20265;-53
2022/06/16 10:23:13;;;;;;;2.53;2.33;;;;;;;;;;5049799;28;20235;-53
2022/06/16 10:25:43;;;;;;;2.50;2.30;;;;;;;;;;5054773;28;20630;-53
2022/06/16 10:28:16;;;;;;;3.08;1.85;;;;;;;;;;5055082;28;20231;-53
2022/06/16 10:30:42;;;;;;;4.75;1.95;;;;;;;;;;5058365;28;20262;-53
2022/06/16 10:33:16;;;;;;;2.72;2.20;;;;;;;;;;5061957;28;20319;-54
2022/06/16 10:35:47;;;;;;;3.40;2.55;;;;;;;;;;5056183;28;20312;-53
2022/06/16 10:38:20;;;;;;;4.18;2.47;;;;;;;;;;5060497;28;20226;-54
2022/06/16 10:40:46;;;;;;;3.08;2.03;;;;;;;;;;5054681;28;20246;-53
2022/06/16 10:43:14;;;;;;;3.10;2.10;;;;;;;;;;5051643;28;20239;-54
2022/06/16 10:45:41;;;;;;;4.53;1.83;;;;;;;;;;5071774;28;20712;-53
2022/06/16 10:48:09;;;;;;;2.45;2.25;;;;;;;;;;5061223;28;20625;-52
2022/06/16 10:50:37;;;;;;;2.92;2.30;;;;;;;;;;5073449;28;20230;-53
2022/06/16 10:53:05;;;;;;;2.47;2.13;;;;;;;;;;5059491;28;20234;-53
2022/06/16 10:55:38;;;;;;;4.30;2.20;;;;;;;;;;5055223;28;20313;-53
2022/06/16 10:58:06;;;;;;;2.60;1.95;;;;;;;;;;5062154;28;20234;-53
2022/06/16 11:00:33;;;;;;;3.33;1.80;;;;;;;;;;5053045;28;20246;-53
2022/06/16 11:03:02;;;;;;;4.32;1.85;;;;;;;;;;5072517;28;20239;-53
2022/06/16 11:05:30;;;;;;;4.05;2.33;;;;;;;;;;5055450;28;20296;-53
2022/06/16 11:08:05;;;;;;;3.13;2.28;;;;;;;;;;5059094;28;20232;-54
2022/06/16 11:10:32;;;;;;;3.83;2.00;;;;;;;;;;5050611;28;20242;-53
2022/06/16 11:13:00;;;;;;;3.22;2.25;;;;;;;;;;5062371;28;20269;-53
2022/06/16 11:15:29;;;;;;;4.10;2.22;;;;;;;;;;5058433;28;20231;-53
2022/06/16 11:17:56;;;;;;;4.60;1.92;;;;;;;;;;5061870;28;20237;-53
2022/06/16 11:20:24;;;;;;;3.47;2.13;;;;;;;;;;5058611;28;20258;-53
2022/06/16 11:22:51;;;;;;;2.60;1.70;;;;;;;;;;5057751;28;20233;-53
2022/06/16 11:25:20;;;;;;;3.42;2.10;;;;;;;;;;5068648;28;20228;-54
2022/06/16 11:27:47;;;;;;;6.43;2.58;;;;;;;;;;5069073;28;20223;-53
2022/06/16 11:30:36;;;;;;;3.53;2.20;;;;;;;;;;5053034;28;20725;-53
2022/06/16 11:33:03;;;;;;;2.45;1.77;;;;;;;;;;5057270;28;20258;-53
2022/06/16 11:35:34;;;;;;;3.90;2.35;;;;;;;;;;5064134;28;20246;-52
2022/06/16 11:38:02;;;;;;;5.50;2.33;;;;;;;;;;5064946;28;20813;-52
2022/06/16 11:40:36;;;;;;;2.53;1.80;;;;;;;;;;5062211;28;20242;-53
2022/06/16 11:43:20;;;;;;;2.85;1.98;;;;;;;;;;5053911;28;20239;-53
2022/06/16 11:45:50;;;;;;;3.58;2.53;;;;;;;;;;5059857;28;20238;-53
2022/06/16 11:48:22;;;;;;;2.92;2.05;;;;;;;;;;5057184;28;20239;-52
2022/06/16 11:50:53;;;;;;;3.30;1.88;;;;;;;;;;5057522;28;20589;-53
2022/06/16 11:53:27;;;;;;;2.17;1.65;;;;;;;;;;5056375;28;20756;-52
2022/06/16 11:55:57;;;;;;;2.25;1.70;;;;;;;;;;5058957;28;20253;-53
2022/06/16 11:58:33;;;;;;;3.88;1.90;;;;;;;;;;5055695;28;20231;-53
2022/06/16 12:01:03;;;;;;;2.22;1.75;;;;;;;;;;5056677;28;20227;-53
2022/06/16 12:03:37;;;;;;;2.72;1.83;;;;;;;;;;5057866;28;20231;-53
2022/06/16 12:06:15;;;;;;;5.38;2.42;;;;;;;;;;5056278;28;20231;-53
2022/06/16 12:08:51;;;;;;;3.15;1.90;;;;;;;;;;5066929;28;20227;-53
2022/06/16 12:11:20;;;;;;;2.53;2.05;;;;;;;;;;5056736;28;20231;-53
2022/06/16 12:13:50;;;;;;;4.03;1.83;;;;;;;;;;5062440;28;20231;-53
2022/06/16 12:16:21;;;;;;;4.65;2.13;;;;;;;;;;5056582;28;20304;-54
2022/06/16 12:18:52;;;;;;;5.35;1.88;;;;;;;;;;5061346;28;20756;-53
2022/06/16 12:21:20;;;;;;;5.38;1.77;;;;;;;;;;5058057;28;20307;-54
2022/06/16 12:23:49;;;;;;;2.00;1.50;;;;;;;;;;5052897;28;20661;-53
2022/06/16 12:26:21;;;;;;;3.42;1.58;;;;;;;;;;5056067;28;20243;-53
2022/06/16 12:28:49;;;;;;;2.42;1.95;;;;;;;;;;5055702;28;20242;-53
2022/06/16 12:31:17;;;;;;;1.92;1.80;;;;;;;;;;5055407;28;20315;-53
2022/06/16 12:33:47;;;;;;;3.08;1.83;;;;;;;;;;5057676;28;20234;-53
2022/06/16 12:36:16;;;;;;;3.05;1.95;;;;;;;;;;5062326;28;20278;-53
2022/06/16 12:38:45;;;;;;;2.08;1.63;;;;;;;;;;5061809;28;20289;-53
2022/06/16 12:41:17;;;;;;;3.58;1.52;;;;;;;;;;5064801;28;20254;-54
2022/06/16 12:43:45;;;;;;;2.65;1.75;;;;;;;;;;5064474;28;20292;-53
2022/06/16 12:46:14;;;;;;;2.47;1.90;;;;;;;;;;5058389;28;20310;-53
2022/06/16 12:48:43;;;;;;;4.60;2.08;;;;;;;;;;5059901;28;20737;-54
2022/06/16 12:51:14;;;;;;;4.97;1.67;;;;;;;;;;5058232;28;20436;-54
2022/06/16 12:53:44;;;;;;;3.75;1.83;;;;;;;;;;5058044;28;20683;-53
2022/06/16 12:56:14;;;;;;;2.40;1.80;;;;;;;;;;5060855;28;20326;-53
2022/06/16 12:58:44;;;;;;;9.10;2.13;;;;;;;;;;5057473;28;20230;-52
2022/06/16 13:01:12;;;;;;;3.80;1.65;;;;;;;;;;5058147;28;20234;-55
2022/06/16 13:03:42;;;;;;;3.28;1.50;;;;;;;;;;5054596;28;20318;-54
2022/06/16 13:06:09;;;;;;;2.00;1.60;;;;;;;;;;5049058;28;20235;-54
2022/06/16 13:08:39;;;;;;;2.92;1.67;;;;;;;;;;5057453;28;20227;-54
2022/06/16 13:11:07;;;;;;;5.05;2.17;;;;;;;;;;5057096;28;20261;-54
2022/06/16 13:13:37;;;;;;;5.75;2.20;;;;;;;;;;5056219;28;20263;-54
2022/06/16 13:16:03;;;;;;;4.03;1.98;;;;;;;;;;5056694;28;20235;-56
2022/06/16 13:18:32;;;;;;;2.17;1.90;;;;;;;;;;5056335;28;20243;-54
2022/06/16 13:21:00;;;;;;;1.70;1.60;;;;;;;;;;5065037;28;20227;-53
2022/06/16 13:23:31;;;;;;;1.80;1.70;;;;;;;;;;5056705;28;20805;-53
2022/06/16 13:26:18;;;;;;;5.03;2.65;;;;;;;;;;5059968;28;20300;-53
2022/06/16 13:28:50;;;;;;;2.95;2.00;;;;;;;;;;5057590;28;20673;-53
2022/06/16 13:31:28;;;;;;;3.55;1.92;;;;;;;;;;5059507;28;20231;-53
2022/06/16 13:34:09;;;;;;;2.38;2.13;;;;;;;;;;5058482;28;20246;-53
2022/06/16 13:36:40;;;;;;;4.93;2.10;;;;;;;;;;5056235;28;20590;-53
2022/06/16 13:39:08;;;;;;;2.97;1.80;;;;;;;;;;5052496;28;20319;-53
2022/06/16 13:41:38;;;;;;;1.88;1.77;;;;;;;;;;5055359;28;20234;-54
2022/06/16 13:44:05;;;;;;;2.40;1.80;;;;;;;;;;5058022;28;20227;-53
2022/06/16 13:46:47;;;;;;;4.10;2.17;;;;;;;;;;5055969;28;20239;-54
2022/06/16 13:49:25;;;;;;;3.15;1.90;;;;;;;;;;5057500;28;20223;-53
2022/06/16 13:51:51;;;;;;;3.20;1.95;;;;;;;;;;5057066;28;20240;-55
2022/06/16 13:54:28;;;;;;;4.80;1.70;;;;;;;;;;5060675;28;20319;-55
2022/06/16 13:56:56;;;;;;;5.43;1.83;;;;;;;;;;5063770;28;20241;-53
2022/06/16 13:59:27;;;;;;;2.97;1.90;;;;;;;;;;5059840;28;20233;-53
2022/06/16 14:02:05;;;;;;;2.25;1.65;;;;;;;;;;5060852;28;20823;-53
2022/06/16 14:04:31;;;;;;;2.55;1.67;;;;;;;;;;5038800;28;20228;-53
2022/06/16 14:07:02;;;;;;;2.30;1.60;;;;;;;;;;5043567;28;20223;-53
2022/06/16 14:09:31;;;;;;;2.05;1.58;;;;;;;;;;5056112;28;20235;-53
2022/06/16 14:12:17;;;;;;;4.38;2.03;;;;;;;;;;5064450;28;20340;-53
2022/06/16 14:14:58;;;;;;;3.90;2.20;;;;;;;;;;5062755;28;20245;-53
2022/06/16 14:17:30;;;;;;;3.53;2.20;;;;;;;;;;5052967;28;20243;-56
2022/06/16 14:19:57;;;;;;;3.22;1.83;;;;;;;;;;5060929;28;20227;-58
2022/06/16 14:22:24;;;;;;;2.65;1.73;;;;;;;;;;5058216;28;20243;-54
2022/06/16 14:24:53;;;;;;;3.20;2.00;;;;;;;;;;5059306;28;20618;-53
2022/06/16 14:27:23;;;;;;;1.40;1.30;;;;;;;;;;5057464;28;20230;-54
2022/06/16 14:29:50;;;;;;;1.77;1.65;;;;;;;;;;5062019;28;20284;-53
2022/06/16 14:33:06;;;;;;;6.35;1.92;;;;;;;;;;5040102;27;20598;-52
2022/06/16 14:35:34;;;;;;;5.88;2.25;;;;;;;;;;5039667;28;20285;-52
2022/06/16 14:38:03;;;;;;;1.85;1.58;;;;;;;;;;5035388;28;20250;-53
2022/06/16 14:40:33;;;;;;;2.75;1.75;;;;;;;;;;5039857;28;20270;-52
2022/06/16 14:43:01;;;;;;;4.35;1.50;;;;;;;;;;5038794;28;20235;-53
2022/06/16 14:45:30;;;;;;;5.32;1.98;;;;;;;;;;5033256;28;20232;-52
2022/06/16 14:47:59;;;;;;;2.97;1.52;;;;;;;;;;5035142;28;20755;-52
2022/06/16 14:50:30;;;;;;;2.03;1.83;;;;;;;;;;5030328;28;20242;-52
2022/06/16 14:52:57;;;;;;;3.53;1.55;;;;;;;;;;5034450;28;20234;-52
2022/06/16 14:55:31;;;;;;;2.13;1.85;;;;;;;;;;5054519;28;20282;-53
2022/06/16 14:58:03;;;;;;;3.15;1.40;;;;;;;;;;5037718;28;20235;-52
2022/06/16 15:00:31;;;;;;;1.80;1.30;;;;;;;;;;5041617;28;20231;-53
2022/06/16 15:02:58;;;;;;;2.45;1.83;;;;;;;;;;5035274;28;20286;-53
2022/06/16 15:05:26;;;;;;;1.65;1.55;;;;;;;;;;5041654;28;20239;-52
2022/06/16 15:07:53;;;;;;;1.95;1.20;;;;;;;;;;5041903;28;20287;-52
2022/06/16 15:10:21;;;;;;;2.30;1.38;;;;;;;;;;5038392;28;20375;-52
2022/06/16 15:12:48;;;;;;;2.20;1.52;;;;;;;;;;5036826;28;20243;-53